createdAt,value
2016-12-22T00:00:10.741Z,0
2016-12-22T00:01:21.074Z,0
2016-12-22T00:02:31.084Z,0
2016-12-22T00:03:41.092Z,0
2016-12-22T00:04:51.403Z,0
2016-12-22T00:06:01.420Z,0
2016-12-22T00:07:11.441Z,0
2016-12-22T00:08:21.464Z,0
2016-12-22T00:09:31.791Z,0
2016-12-22T00:10:42.112Z,0
2016-12-22T00:11:51.813Z,0
2016-12-22T00:13:01.831Z,0
2016-12-22T00:14:12.156Z,0
2016-12-22T00:15:22.479Z,0
2016-12-22T00:16:32.493Z,0
2016-12-22T00:17:42.493Z,0
2016-12-22T00:18:52.806Z,0
2016-12-22T00:20:03.160Z,0
2016-12-22T00:21:13.477Z,0
2016-12-22T00:22:23.862Z,0
2016-12-22T00:23:33.890Z,0
2016-12-22T00:24:43.889Z,0
2016-12-22T00:25:54.220Z,0
2016-12-22T00:27:04.546Z,0
2016-12-22T00:28:14.868Z,0
2016-12-22T00:29:25.206Z,0
2016-12-22T00:30:35.207Z,0
2016-12-22T00:31:45.518Z,0
2016-12-22T00:32:55.830Z,0
2016-12-22T00:34:06.156Z,0
2016-12-22T00:35:16.479Z,0
2016-12-22T00:36:26.504Z,0
2016-12-22T00:37:36.511Z,0
2016-12-22T00:38:46.813Z,0
2016-12-22T00:39:57.155Z,0
2016-12-22T00:41:07.467Z,0
2016-12-22T00:42:17.798Z,0
2016-12-22T00:43:27.820Z,0
2016-12-22T00:44:38.134Z,0
2016-12-22T00:45:48.459Z,0
2016-12-22T00:46:58.472Z,0
2016-12-22T00:48:08.794Z,0
2016-12-22T00:49:19.124Z,0
2016-12-22T00:50:29.455Z,0
2016-12-22T00:51:39.158Z,0
2016-12-22T00:52:48.854Z,0
2016-12-22T00:53:59.176Z,0
2016-12-22T00:55:09.487Z,0
2016-12-22T00:56:19.505Z,0
2016-12-22T00:57:29.505Z,0
2016-12-22T00:58:39.821Z,0
2016-12-22T00:59:49.843Z,0
2016-12-22T01:00:59.851Z,0
2016-12-22T01:02:09.873Z,0
2016-12-22T01:03:20.200Z,0
2016-12-22T01:04:30.207Z,0
2016-12-22T01:05:40.527Z,0
2016-12-22T01:06:50.538Z,0
2016-12-22T01:08:00.860Z,0
2016-12-22T01:09:10.858Z,0
2016-12-22T01:10:20.875Z,0
2016-12-22T01:11:30.886Z,0
2016-12-22T01:12:40.891Z,0
2016-12-22T01:13:51.216Z,0
2016-12-22T01:15:01.591Z,0
2016-12-22T01:16:11.608Z,0
2016-12-22T01:17:21.929Z,0
2016-12-22T01:18:31.931Z,0
2016-12-22T01:19:41.939Z,0
2016-12-22T01:20:52.496Z,0
2016-12-22T01:22:02.827Z,0
2016-12-22T01:23:13.149Z,0
2016-12-22T01:24:23.192Z,0
2016-12-22T01:25:33.517Z,0
2016-12-22T01:26:43.844Z,0
2016-12-22T01:27:53.850Z,0
2016-12-22T01:29:03.853Z,0
2016-12-22T01:30:13.883Z,0
2016-12-22T01:31:24.215Z,0
2016-12-22T01:32:34.232Z,0
2016-12-22T01:33:44.235Z,0
2016-12-22T01:34:54.554Z,0
2016-12-22T01:36:04.883Z,0
2016-12-22T01:37:15.196Z,0
2016-12-22T01:38:25.202Z,0
2016-12-22T01:39:35.522Z,0
2016-12-22T01:40:45.545Z,0
2016-12-22T01:41:55.546Z,0
2016-12-22T01:43:05.885Z,0
2016-12-22T01:44:15.893Z,0
2016-12-22T01:45:25.605Z,0
2016-12-22T01:46:35.927Z,0
2016-12-22T01:47:45.938Z,0
2016-12-22T01:48:55.948Z,0
2016-12-22T01:50:05.964Z,0
2016-12-22T01:51:15.985Z,0
2016-12-22T01:52:25.989Z,0
2016-12-22T01:53:36.317Z,0
2016-12-22T01:54:46.311Z,0
2016-12-22T01:55:56.651Z,0
2016-12-22T01:57:06.358Z,0
2016-12-22T01:58:16.365Z,0
2016-12-22T01:59:26.066Z,0
2016-12-22T02:00:36.072Z,0
2016-12-22T02:01:46.100Z,0
2016-12-22T02:02:56.422Z,0
2016-12-22T02:04:06.757Z,0
2016-12-22T02:05:16.770Z,0
2016-12-22T02:06:27.131Z,0
2016-12-22T02:07:36.839Z,0
2016-12-22T02:08:47.159Z,0
2016-12-22T02:09:56.556Z,0
2016-12-22T02:11:06.873Z,0
2016-12-22T02:12:17.204Z,0
2016-12-22T02:13:27.535Z,0
2016-12-22T02:14:37.542Z,0
2016-12-22T02:15:47.864Z,0
2016-12-22T02:16:57.873Z,0
2016-12-22T02:18:08.186Z,0
2016-12-22T02:19:17.875Z,0
2016-12-22T02:20:27.916Z,0
2016-12-22T02:21:37.918Z,0
2016-12-22T02:22:47.625Z,0
2016-12-22T02:23:57.631Z,0
2016-12-22T02:25:07.644Z,0
2016-12-22T02:26:17.657Z,0
2016-12-22T02:27:27.984Z,0
2016-12-22T02:28:37.988Z,0
2016-12-22T02:29:47.991Z,0
2016-12-22T02:30:57.992Z,0
2016-12-22T02:32:08.288Z,0
2016-12-22T02:33:18.300Z,0
2016-12-22T02:34:28.621Z,0
2016-12-22T02:35:38.969Z,0
2016-12-22T02:36:48.961Z,0
2016-12-22T02:37:58.666Z,0
2016-12-22T02:39:08.988Z,0
2016-12-22T02:40:19.310Z,0
2016-12-22T02:41:29.011Z,0
2016-12-22T02:42:39.338Z,0
2016-12-22T02:43:49.101Z,0
2016-12-22T02:44:58.800Z,0
2016-12-22T02:46:08.818Z,0
2016-12-22T02:47:18.516Z,0
2016-12-22T02:48:29.107Z,0
2016-12-22T02:49:39.419Z,0
2016-12-22T02:50:49.424Z,0
2016-12-22T02:51:59.738Z,0
2016-12-22T02:53:09.445Z,0
2016-12-22T02:54:19.169Z,0
2016-12-22T02:55:29.241Z,0
2016-12-22T02:56:39.562Z,0
2016-12-22T02:57:49.563Z,0
2016-12-22T02:58:59.885Z,0
2016-12-22T03:00:10.212Z,0
2016-12-22T03:01:20.219Z,0
2016-12-22T03:32:49.011Z,0
2016-12-22T03:33:59.046Z,0
2016-12-22T03:35:09.355Z,0
2016-12-22T03:36:19.365Z,0
2016-12-22T03:37:29.667Z,0
2016-12-22T03:38:39.978Z,0
2016-12-22T03:39:50.312Z,0
2016-12-22T03:41:00.612Z,0
2016-12-22T03:42:10.923Z,0
2016-12-22T03:43:20.934Z,0
2016-12-22T03:44:30.941Z,0
2016-12-22T03:45:40.958Z,0
2016-12-22T03:46:50.963Z,0
2016-12-22T03:48:01.280Z,0
2016-12-22T03:49:11.321Z,0
2016-12-22T03:50:21.330Z,0
2016-12-22T03:51:31.644Z,0
2016-12-22T03:52:41.349Z,0
2016-12-22T03:53:51.367Z,0
2016-12-22T03:55:01.385Z,0
2016-12-22T03:56:11.101Z,0
2016-12-22T03:57:21.455Z,0
2016-12-22T03:58:30.844Z,0
2016-12-22T03:59:41.172Z,0
2016-12-22T04:00:51.512Z,0
2016-12-22T04:02:01.512Z,0
2016-12-22T04:03:11.537Z,0
2016-12-22T04:04:21.237Z,0
2016-12-22T04:05:31.246Z,0
2016-12-22T04:06:41.248Z,0
2016-12-22T04:07:51.563Z,0
2016-12-22T04:09:01.880Z,0
2016-12-22T04:10:11.877Z,0
2016-12-22T04:11:21.887Z,0
2016-12-22T04:12:31.925Z,0
2016-12-22T04:13:41.932Z,0
2016-12-22T04:14:51.943Z,0
2016-12-22T04:16:01.951Z,0
2016-12-22T04:17:11.649Z,0
2016-12-22T04:18:21.664Z,0
2016-12-22T04:19:31.967Z,0
2016-12-22T04:20:41.717Z,0
2016-12-22T04:21:52.080Z,0
2016-12-22T04:23:02.096Z,0
2016-12-22T04:24:12.102Z,0
2016-12-22T04:25:22.164Z,0
2016-12-22T04:26:32.476Z,0
2016-12-22T04:27:42.478Z,0
2016-12-22T04:28:52.486Z,0
2016-12-22T04:30:02.496Z,0
2016-12-22T04:31:12.503Z,0
2016-12-22T04:32:22.817Z,0
2016-12-22T04:33:32.526Z,0
2016-12-22T04:34:42.534Z,0
2016-12-22T04:35:52.845Z,0
2016-12-22T04:37:03.162Z,0
2016-12-22T04:38:12.854Z,0
2016-12-22T04:39:22.854Z,0
2016-12-22T04:40:32.571Z,0
2016-12-22T04:41:42.577Z,0
2016-12-22T04:42:52.589Z,0
2016-12-22T04:44:02.607Z,0
2016-12-22T04:45:12.297Z,0
2016-12-22T04:46:22.310Z,0
2016-12-22T04:47:32.002Z,0
2016-12-22T04:48:42.001Z,0
2016-12-22T04:49:51.695Z,0
2016-12-22T04:51:02.031Z,0
2016-12-22T04:52:12.459Z,0
2016-12-22T04:53:21.452Z,0
2016-12-22T04:54:31.461Z,0
2016-12-22T04:55:41.153Z,0
2016-12-22T04:56:51.461Z,0
2016-12-22T04:58:01.463Z,0
2016-12-22T04:59:11.164Z,0
2016-12-22T05:00:20.297Z,0
2016-12-22T05:01:30.303Z,0
2016-12-22T05:02:40.629Z,0
2016-12-22T05:03:50.330Z,0
2016-12-22T05:05:00.348Z,0
2016-12-22T05:06:10.356Z,0
2016-12-22T05:07:20.381Z,0
2016-12-22T05:08:30.079Z,0
2016-12-22T05:09:40.401Z,0
2016-12-22T05:10:50.416Z,0
2016-12-22T05:12:00.109Z,0
2016-12-22T05:13:10.435Z,0
2016-12-22T05:14:20.441Z,0
2016-12-22T05:15:30.143Z,0
2016-12-22T05:16:39.850Z,0
2016-12-22T05:17:50.170Z,0
2016-12-22T05:19:00.502Z,0
2016-12-22T05:20:10.215Z,0
2016-12-22T05:21:20.536Z,0
2016-12-22T05:22:30.550Z,0
2016-12-22T05:23:40.881Z,0
2016-12-22T05:24:51.204Z,0
2016-12-22T05:26:01.204Z,0
2016-12-22T05:27:11.550Z,0
2016-12-22T05:28:21.871Z,0
2016-12-22T05:29:31.878Z,0
2016-12-22T05:30:42.201Z,0
2016-12-22T05:31:52.203Z,4
2016-12-22T05:33:02.203Z,0
2016-12-22T05:34:12.506Z,0
2016-12-22T05:35:21.881Z,0
2016-12-22T05:36:31.604Z,0
2016-12-22T05:37:41.606Z,0
2016-12-22T05:38:51.622Z,0
2016-12-22T05:40:01.939Z,0
2016-12-22T05:41:11.696Z,0
2016-12-22T05:42:21.403Z,0
2016-12-22T05:43:31.418Z,0
2016-12-22T05:44:41.749Z,0
2016-12-22T05:45:51.767Z,0
2016-12-22T05:47:01.469Z,0
2016-12-22T05:48:11.157Z,0
2016-12-22T05:49:21.195Z,0
2016-12-22T05:50:31.220Z,0
2016-12-22T05:51:41.230Z,0
2016-12-22T05:52:51.549Z,0
2016-12-22T05:54:01.280Z,0
2016-12-22T05:55:11.311Z,0
2016-12-22T05:56:21.323Z,0
2016-12-22T05:57:31.345Z,0
2016-12-22T05:58:41.681Z,0
2016-12-22T05:59:52.005Z,0
2016-12-22T06:01:02.345Z,0
2016-12-22T06:02:12.085Z,0
2016-12-22T06:03:22.413Z,0
2016-12-22T06:04:32.426Z,0
2016-12-22T06:05:42.753Z,0
2016-12-22T06:06:53.073Z,4
2016-12-22T06:08:03.080Z,4
2016-12-22T06:09:13.408Z,4
2016-12-22T06:10:23.736Z,4
2016-12-22T06:11:33.749Z,4
2016-12-22T06:12:44.063Z,4
2016-12-22T06:13:54.076Z,4
2016-12-22T06:15:04.090Z,4
2016-12-22T06:16:14.089Z,0
2016-12-22T06:17:24.400Z,0
2016-12-22T06:18:34.721Z,0
2016-12-22T06:19:45.041Z,0
2016-12-22T06:20:55.055Z,4
2016-12-22T06:22:05.060Z,4
2016-12-22T06:23:15.375Z,0
2016-12-22T06:24:25.378Z,4
2016-12-22T06:25:35.700Z,4
2016-12-22T06:26:45.714Z,8
2016-12-22T06:27:56.030Z,4
2016-12-22T06:29:06.029Z,8
2016-12-22T06:30:15.728Z,8
2016-12-22T06:31:25.439Z,8
2016-12-22T06:32:35.753Z,8
2016-12-22T06:33:45.758Z,8
2016-12-22T06:34:55.775Z,8
2016-12-22T06:36:06.099Z,12
2016-12-22T06:37:15.794Z,12
2016-12-22T06:38:26.117Z,12
2016-12-22T06:39:36.137Z,16
2016-12-22T06:40:46.450Z,20
2016-12-22T06:41:56.457Z,20
2016-12-22T06:43:06.776Z,24
2016-12-22T06:44:17.099Z,24
2016-12-22T06:45:27.412Z,28
2016-12-22T06:46:37.112Z,28
2016-12-22T06:47:47.118Z,28
2016-12-22T06:48:57.447Z,32
2016-12-22T06:50:07.764Z,32
2016-12-22T06:51:17.454Z,32
2016-12-22T06:52:27.145Z,36
2016-12-22T06:53:37.477Z,36
2016-12-22T06:54:47.794Z,36
2016-12-22T06:55:57.492Z,44
2016-12-22T06:57:07.199Z,44
2016-12-22T06:58:17.222Z,48
2016-12-22T06:59:27.575Z,48
2016-12-22T07:00:37.581Z,56
2016-12-22T07:01:47.905Z,64
2016-12-22T07:02:58.232Z,72
2016-12-22T07:04:08.275Z,76
2016-12-22T07:05:18.591Z,80
2016-12-22T07:06:28.282Z,84
2016-12-22T07:07:37.668Z,88
2016-12-22T07:08:47.699Z,88
2016-12-22T07:09:57.932Z,92
2016-12-22T07:11:07.953Z,92
2016-12-22T07:12:17.649Z,100
2016-12-22T07:13:27.668Z,100
2016-12-22T07:14:37.674Z,104
2016-12-22T07:15:47.685Z,104
2016-12-22T07:16:57.074Z,108
2016-12-22T07:18:07.404Z,116
2016-12-22T07:19:17.721Z,128
2016-12-22T07:20:27.436Z,128
2016-12-22T07:21:37.750Z,136
2016-12-22T07:22:47.760Z,136
2016-12-22T07:23:57.790Z,144
2016-12-22T07:25:08.114Z,148
2016-12-22T07:26:18.445Z,148
2016-12-22T07:27:28.472Z,152
2016-12-22T07:28:37.850Z,156
2016-12-22T07:29:47.871Z,164
2016-12-22T07:30:57.895Z,168
2016-12-22T07:32:08.220Z,176
2016-12-22T07:33:18.231Z,180
2016-12-22T07:34:28.550Z,188
2016-12-22T07:35:38.560Z,188
2016-12-22T07:36:48.892Z,200
2016-12-22T07:37:58.902Z,204
2016-12-22T07:39:08.913Z,212
2016-12-22T07:40:18.612Z,224
2016-12-22T07:41:28.344Z,220
2016-12-22T07:42:38.054Z,228
2016-12-22T07:43:48.063Z,232
2016-12-22T07:44:58.378Z,244
2016-12-22T07:46:08.395Z,252
2016-12-22T07:47:18.401Z,276
2016-12-22T07:48:28.727Z,276
2016-12-22T07:49:39.058Z,284
2016-12-22T07:50:49.072Z,296
2016-12-22T07:51:59.392Z,300
2016-12-22T07:53:09.095Z,288
2016-12-22T07:54:19.151Z,284
2016-12-22T07:55:29.472Z,296
2016-12-22T07:56:39.518Z,308
2016-12-22T07:57:49.570Z,312
2016-12-22T07:58:59.603Z,316
2016-12-22T08:00:09.613Z,344
2016-12-22T08:01:19.618Z,348
2016-12-22T08:02:29.628Z,356
2016-12-22T08:03:39.962Z,356
2016-12-22T08:04:50.271Z,360
2016-12-22T08:06:00.305Z,368
2016-12-22T08:07:10.647Z,368
2016-12-22T08:08:20.659Z,380
2016-12-22T08:09:30.685Z,388
2016-12-22T08:10:40.712Z,400
2016-12-22T08:11:50.718Z,404
2016-12-22T08:13:01.067Z,412
2016-12-22T08:14:11.082Z,412
2016-12-22T08:15:21.083Z,424
2016-12-22T08:16:31.111Z,408
2016-12-22T08:17:41.127Z,416
2016-12-22T08:18:51.449Z,428
2016-12-22T08:20:01.145Z,448
2016-12-22T08:21:10.846Z,440
2016-12-22T08:22:21.178Z,440
2016-12-22T08:23:31.189Z,464
2016-12-22T08:24:41.218Z,480
2016-12-22T08:25:50.918Z,500
2016-12-22T08:27:01.230Z,548
2016-12-22T08:28:10.925Z,608
2016-12-22T08:29:21.282Z,664
2016-12-22T08:30:31.618Z,648
2016-12-22T08:31:41.621Z,616
2016-12-22T08:32:51.627Z,616
2016-12-22T08:34:01.630Z,640
2016-12-22T08:35:11.637Z,668
2016-12-22T08:36:21.966Z,664
2016-12-22T08:37:32.298Z,660
2016-12-22T08:38:42.634Z,664
2016-12-22T08:39:52.938Z,652
2016-12-22T08:41:02.652Z,696
2016-12-22T08:42:12.350Z,716
2016-12-22T08:43:22.676Z,680
2016-12-22T08:44:32.697Z,644
2016-12-22T08:45:42.389Z,620
2016-12-22T08:46:52.405Z,592
2016-12-22T08:48:02.724Z,604
2016-12-22T08:49:12.420Z,600
2016-12-22T08:50:22.446Z,596
2016-12-22T08:51:32.806Z,600
2016-12-22T08:52:43.133Z,588
2016-12-22T08:53:53.481Z,560
2016-12-22T08:55:03.799Z,572
2016-12-22T08:56:14.135Z,612
2016-12-22T08:57:24.449Z,624
2016-12-22T08:58:34.771Z,624
2016-12-22T08:59:45.100Z,640
2016-12-22T09:00:55.119Z,656
2016-12-22T09:02:05.453Z,636
2016-12-22T09:03:15.159Z,640
2016-12-22T09:04:25.186Z,636
2016-12-22T09:05:35.507Z,608
2016-12-22T09:06:45.525Z,620
2016-12-22T09:07:55.253Z,652
2016-12-22T09:09:05.263Z,644
2016-12-22T09:10:14.994Z,668
2016-12-22T09:11:25.317Z,660
2016-12-22T09:12:35.017Z,660
2016-12-22T09:13:45.045Z,668
2016-12-22T09:14:55.371Z,664
2016-12-22T09:16:05.073Z,676
2016-12-22T09:17:15.402Z,684
2016-12-22T09:20:25.294Z,724
2016-12-22T09:23:28.349Z,704
2016-12-22T09:24:38.050Z,696
2016-12-22T09:25:48.362Z,684
2016-12-22T09:26:58.685Z,692
2016-12-22T09:28:09.001Z,708
2016-12-22T09:29:19.318Z,740
2016-12-22T09:30:29.327Z,752
2016-12-22T09:31:39.351Z,772
2016-12-22T09:32:49.358Z,780
2016-12-22T09:33:59.370Z,776
2016-12-22T09:35:09.396Z,784
2016-12-22T09:36:19.403Z,800
2016-12-22T09:37:29.430Z,812
2016-12-22T09:38:39.742Z,840
2016-12-22T09:39:49.448Z,852
2016-12-22T09:40:59.761Z,864
2016-12-22T09:42:10.088Z,880
2016-12-22T09:43:20.419Z,900
2016-12-22T09:44:30.133Z,884
2016-12-22T09:45:39.859Z,908
2016-12-22T09:46:49.589Z,892
2016-12-22T09:47:59.285Z,908
2016-12-22T09:49:08.686Z,900
2016-12-22T09:50:19.009Z,896
2016-12-22T09:51:29.013Z,872
2016-12-22T09:52:39.024Z,840
2016-12-22T09:53:49.069Z,844
2016-12-22T09:54:59.432Z,848
2016-12-22T09:56:09.446Z,840
2016-12-22T09:57:19.782Z,888
2016-12-22T09:58:30.102Z,968
2016-12-22T09:59:39.820Z,956
2016-12-22T10:00:49.535Z,920
2016-12-22T10:01:59.577Z,868
2016-12-22T10:03:09.583Z,856
2016-12-22T10:04:19.920Z,888
2016-12-22T10:05:29.619Z,940
2016-12-22T10:06:39.954Z,984
2016-12-22T10:07:50.281Z,984
2016-12-22T10:09:00.578Z,964
2016-12-22T10:10:10.598Z,908
2016-12-22T10:11:20.927Z,844
2016-12-22T10:12:30.950Z,816
2016-12-22T10:13:41.278Z,824
2016-12-22T10:14:51.611Z,820
2016-12-22T10:16:01.619Z,804
2016-12-22T10:17:11.638Z,884
2016-12-22T10:18:21.967Z,908
2016-12-22T10:19:31.394Z,944
2016-12-22T10:20:41.096Z,972
2016-12-22T10:21:50.808Z,980
2016-12-22T10:23:01.134Z,960
2016-12-22T10:24:11.462Z,892
2016-12-22T10:25:21.789Z,892
2016-12-22T10:26:32.110Z,924
2016-12-22T10:27:42.121Z,868
2016-12-22T10:28:52.140Z,844
2016-12-22T10:30:02.151Z,888
2016-12-22T10:31:11.864Z,880
2016-12-22T10:32:21.963Z,860
2016-12-22T10:33:32.281Z,856
2016-12-22T10:34:42.302Z,880
2016-12-22T10:35:52.005Z,864
2016-12-22T10:37:02.445Z,868
2016-12-22T10:38:12.894Z,896
2016-12-22T10:39:22.723Z,916
2016-12-22T10:40:32.822Z,968
2016-12-22T10:41:43.157Z,1000
2016-12-22T10:42:52.899Z,980
2016-12-22T10:44:03.272Z,944
2016-12-22T10:45:13.341Z,936
2016-12-22T10:46:23.460Z,912
2016-12-22T10:47:33.560Z,880
2016-12-22T10:48:43.977Z,868
2016-12-22T10:49:54.142Z,856
2016-12-22T10:51:04.548Z,848
2016-12-22T10:52:14.647Z,856
2016-12-22T10:53:24.725Z,888
2016-12-22T10:54:34.791Z,940
2016-12-22T10:55:44.858Z,972
2016-12-22T10:56:55.261Z,980
2016-12-22T10:58:05.366Z,976
2016-12-22T10:59:15.471Z,1000
2016-12-22T11:00:25.529Z,1184
2016-12-22T11:01:35.538Z,1396
2016-12-22T11:02:45.864Z,1488
2016-12-22T11:03:56.181Z,1412
2016-12-22T11:05:05.882Z,1296
2016-12-22T11:06:16.192Z,1324
2016-12-22T11:07:25.901Z,1460
2016-12-22T11:08:36.223Z,1544
2016-12-22T11:09:46.545Z,1548
2016-12-22T11:10:56.872Z,1516
2016-12-22T11:12:06.563Z,1476
2016-12-22T11:13:16.876Z,1472
2016-12-22T11:14:27.211Z,1460
2016-12-22T11:15:37.544Z,1416
2016-12-22T11:16:47.236Z,1396
2016-12-22T11:17:57.246Z,1412
2016-12-22T11:19:07.574Z,1396
2016-12-22T11:20:17.917Z,1324
2016-12-22T11:21:28.254Z,1272
2016-12-22T11:22:38.297Z,1272
2016-12-22T11:23:48.630Z,1272
2016-12-22T11:24:58.008Z,1240
2016-12-22T11:26:08.070Z,1224
2016-12-22T11:27:33.003Z,1216
2016-12-22T11:28:42.718Z,1196
2016-12-22T11:29:52.416Z,1208
2016-12-22T11:31:02.736Z,1188
2016-12-22T11:32:12.743Z,1148
2016-12-22T11:33:22.735Z,1140
2016-12-22T11:34:32.432Z,1068
2016-12-22T11:35:42.148Z,980
2016-12-22T11:36:52.487Z,968
2016-12-22T11:38:02.188Z,992
2016-12-22T11:39:12.522Z,1056
2016-12-22T11:40:22.232Z,1132
2016-12-22T11:41:32.245Z,1144
2016-12-22T11:42:42.265Z,1108
2016-12-22T11:43:52.314Z,1156
2016-12-22T11:45:02.632Z,1232
2016-12-22T11:46:13.004Z,1212
2016-12-22T11:47:23.323Z,1156
2016-12-22T11:48:33.347Z,1112
2016-12-22T11:49:43.714Z,1100
2016-12-22T11:50:54.057Z,1100
2016-12-22T11:52:04.379Z,1144
2016-12-22T11:53:14.418Z,1164
2016-12-22T11:54:24.135Z,1152
2016-12-22T11:55:34.453Z,1156
2016-12-22T11:56:44.491Z,1180
2016-12-22T11:57:54.495Z,1188
2016-12-22T11:59:04.822Z,1224
2016-12-22T12:00:15.146Z,1232
2016-12-22T12:01:24.879Z,1204
2016-12-22T12:02:35.208Z,1208
2016-12-22T12:03:45.546Z,1280
2016-12-22T12:04:55.881Z,1280
2016-12-22T12:06:06.211Z,1220
2016-12-22T12:07:16.550Z,1152
2016-12-22T12:08:26.553Z,1120
2016-12-22T12:09:36.874Z,1104
2016-12-22T12:10:46.591Z,1060
2016-12-22T12:11:55.983Z,1032
2016-12-22T12:13:05.994Z,1016
2016-12-22T12:14:16.005Z,1028
2016-12-22T12:15:26.328Z,1048
2016-12-22T12:16:36.333Z,1052
2016-12-22T12:17:46.367Z,1076
2016-12-22T12:18:56.706Z,1068
2016-12-22T12:20:06.753Z,1020
2016-12-22T12:21:17.111Z,1044
2016-12-22T12:22:27.123Z,1056
2016-12-22T12:23:37.120Z,1056
2016-12-22T12:24:47.140Z,1072
2016-12-22T12:25:57.142Z,1092
2016-12-22T12:27:07.158Z,1060
2016-12-22T12:28:16.228Z,1056
2016-12-22T12:29:26.562Z,1084
2016-12-22T12:30:36.583Z,1056
2016-12-22T12:31:46.300Z,1036
2016-12-22T12:32:56.617Z,1020
2016-12-22T12:34:06.950Z,1024
2016-12-22T12:35:16.371Z,1028
2016-12-22T12:36:26.738Z,1012
2016-12-22T12:37:36.444Z,1000
2016-12-22T12:38:46.781Z,1004
2016-12-22T12:39:56.797Z,1008
2016-12-22T12:41:07.120Z,996
2016-12-22T12:42:17.455Z,1012
2016-12-22T12:43:27.802Z,1028
2016-12-22T12:44:37.814Z,1012
2016-12-22T12:45:48.132Z,988
2016-12-22T12:46:58.150Z,964
2016-12-22T12:48:08.484Z,956
2016-12-22T12:49:18.501Z,944
2016-12-22T12:50:28.212Z,944
2016-12-22T12:51:38.225Z,924
2016-12-22T12:52:48.552Z,892
2016-12-22T12:53:58.303Z,892
2016-12-22T12:55:08.302Z,888
2016-12-22T12:56:18.319Z,876
2016-12-22T12:57:28.636Z,880
2016-12-22T12:58:38.956Z,876
2016-12-22T12:59:48.656Z,880
2016-12-22T13:00:59.005Z,868
2016-12-22T13:02:09.039Z,856
2016-12-22T13:03:19.055Z,836
2016-12-22T13:04:29.384Z,824
2016-12-22T13:05:39.409Z,796
2016-12-22T13:06:49.801Z,764
2016-12-22T13:08:00.129Z,732
2016-12-22T13:09:10.150Z,704
2016-12-22T13:10:20.476Z,656
2016-12-22T13:11:30.789Z,644
2016-12-22T13:12:40.491Z,648
2016-12-22T13:13:50.499Z,648
2016-12-22T13:15:00.818Z,640
2016-12-22T13:16:10.829Z,620
2016-12-22T13:17:20.525Z,604
2016-12-22T13:18:30.238Z,608
2016-12-22T13:19:40.550Z,652
2016-12-22T13:20:50.872Z,672
2016-12-22T13:22:00.573Z,656
2016-12-22T13:23:10.889Z,624
2016-12-22T13:24:21.217Z,624
2016-12-22T13:25:31.265Z,672
2016-12-22T13:26:41.279Z,728
2016-12-22T13:27:51.289Z,736
2016-12-22T13:29:01.353Z,716
2016-12-22T13:30:11.374Z,696
2016-12-22T13:31:21.716Z,660
2016-12-22T13:32:31.432Z,652
2016-12-22T13:33:41.771Z,676
2016-12-22T13:34:52.018Z,676
2016-12-22T13:36:02.342Z,664
2016-12-22T13:37:12.355Z,624
2016-12-22T13:38:22.373Z,596
2016-12-22T13:39:32.704Z,604
2016-12-22T13:40:42.419Z,596
2016-12-22T13:41:52.421Z,572
2016-12-22T13:43:02.132Z,548
2016-12-22T13:44:12.494Z,532
2016-12-22T13:45:22.515Z,512
2016-12-22T13:46:32.528Z,500
2016-12-22T13:47:41.621Z,492
2016-12-22T13:48:51.346Z,500
2016-12-22T13:50:01.396Z,488
2016-12-22T13:51:11.763Z,464
2016-12-22T13:52:22.112Z,428
2016-12-22T13:53:32.137Z,412
2016-12-22T13:54:42.149Z,396
2016-12-22T13:55:52.507Z,384
2016-12-22T13:57:02.830Z,372
2016-12-22T13:58:12.851Z,372
2016-12-22T13:59:22.903Z,388
2016-12-22T14:00:32.658Z,400
2016-12-22T14:01:42.693Z,408
2016-12-22T14:02:52.410Z,404
2016-12-22T14:04:02.727Z,388
2016-12-22T14:05:13.048Z,364
2016-12-22T14:06:23.041Z,348
2016-12-22T14:07:33.066Z,328
2016-12-22T14:08:43.084Z,316
2016-12-22T14:09:53.415Z,312
2016-12-22T14:11:03.751Z,304
2016-12-22T14:12:14.078Z,296
2016-12-22T14:13:23.775Z,292
2016-12-22T14:14:33.502Z,284
2016-12-22T14:15:43.832Z,272
2016-12-22T14:16:53.539Z,260
2016-12-22T14:18:02.951Z,248
2016-12-22T14:19:13.263Z,240
2016-12-22T14:20:23.590Z,232
2016-12-22T14:21:33.284Z,224
2016-12-22T14:22:43.057Z,212
2016-12-22T14:23:53.072Z,200
2016-12-22T14:25:03.091Z,188
2016-12-22T14:26:13.113Z,172
2016-12-22T14:27:23.132Z,168
2016-12-22T14:28:33.150Z,160
2016-12-22T14:29:43.172Z,156
2016-12-22T14:30:52.909Z,152
2016-12-22T14:32:02.930Z,148
2016-12-22T14:33:13.246Z,140
2016-12-22T14:34:22.942Z,132
2016-12-22T14:35:33.269Z,132
2016-12-22T14:36:43.287Z,124
2016-12-22T14:37:53.638Z,124
2016-12-22T14:39:03.649Z,116
2016-12-22T14:40:13.666Z,108
2016-12-22T14:41:23.369Z,104
2016-12-22T14:42:33.691Z,96
2016-12-22T14:43:44.031Z,92
2016-12-22T14:44:53.735Z,88
2016-12-22T14:46:04.093Z,84
2016-12-22T14:47:13.198Z,80
2016-12-22T14:48:23.608Z,72
2016-12-22T14:49:33.930Z,68
2016-12-22T14:50:43.678Z,68
2016-12-22T14:51:53.697Z,60
2016-12-22T14:53:03.733Z,60
2016-12-22T14:54:13.795Z,56
2016-12-22T14:55:23.830Z,56
2016-12-22T14:56:33.907Z,52
2016-12-22T14:57:44.266Z,48
2016-12-22T14:58:53.997Z,40
2016-12-22T15:00:04.344Z,40
2016-12-22T15:01:14.738Z,32
2016-12-22T15:02:25.081Z,32
2016-12-22T15:03:34.811Z,28
2016-12-22T15:04:45.124Z,28
2016-12-22T15:05:55.572Z,24
2016-12-22T15:07:05.630Z,20
2016-12-22T15:08:15.999Z,20
2016-12-22T15:09:26.097Z,16
2016-12-22T15:10:36.469Z,16
2016-12-22T15:11:46.521Z,16
2016-12-22T15:12:56.888Z,12
2016-12-22T15:14:06.652Z,8
2016-12-22T15:15:16.693Z,8
2016-12-22T15:16:27.100Z,8
2016-12-22T15:17:37.692Z,8
2016-12-22T15:18:48.110Z,8
2016-12-22T15:19:58.434Z,4
2016-12-22T15:21:08.796Z,8
2016-12-22T15:22:18.821Z,4
2016-12-22T15:23:28.857Z,4
2016-12-22T15:24:39.268Z,4
2016-12-22T15:25:49.340Z,4
2016-12-22T15:26:59.379Z,0
2016-12-22T15:28:09.444Z,4
2016-12-22T15:29:19.488Z,4
2016-12-22T15:30:29.877Z,0
2016-12-22T15:31:39.924Z,0
2016-12-22T15:32:50.246Z,0
2016-12-22T15:34:00.283Z,4
2016-12-22T15:35:10.359Z,4
2016-12-22T15:36:20.587Z,4
2016-12-22T15:37:30.936Z,4
2016-12-22T15:38:41.276Z,0
2016-12-22T15:39:51.355Z,0
2016-12-22T15:41:01.388Z,0
2016-12-22T15:42:11.437Z,0
2016-12-22T15:43:21.783Z,0
2016-12-22T15:44:32.108Z,0
2016-12-22T15:45:42.460Z,0
2016-12-22T15:46:52.801Z,0
2016-12-22T15:48:02.828Z,0
2016-12-22T15:49:12.856Z,0
2016-12-22T15:50:23.209Z,0
2016-12-22T15:51:33.591Z,0
2016-12-22T15:52:43.924Z,0
2016-12-22T15:53:53.639Z,0
2016-12-22T15:55:03.973Z,0
2016-12-22T15:56:14.320Z,0
2016-12-22T15:57:24.663Z,0
2016-12-22T15:58:35.153Z,0
2016-12-22T15:59:45.166Z,0
2016-12-22T16:00:55.528Z,0
2016-12-22T16:02:05.926Z,0
2016-12-22T16:03:15.959Z,0
2016-12-22T16:04:26.283Z,0
2016-12-22T16:05:36.292Z,0
2016-12-22T16:06:46.048Z,0
2016-12-22T16:07:56.430Z,0
2016-12-22T16:09:06.463Z,0
2016-12-22T16:10:16.481Z,0
2016-12-22T16:11:26.188Z,0
2016-12-22T16:12:36.220Z,0
2016-12-22T16:13:46.552Z,0
2016-12-22T16:14:56.263Z,0
2016-12-22T16:16:05.965Z,0
2016-12-22T16:17:16.306Z,0
2016-12-22T16:18:26.333Z,0
2016-12-22T16:19:36.032Z,0
2016-12-22T16:20:46.592Z,0
2016-12-22T16:21:56.942Z,0
2016-12-22T16:23:06.655Z,0
2016-12-22T16:24:16.987Z,0
2016-12-22T16:25:26.698Z,0
2016-12-22T16:26:36.393Z,0
2016-12-22T16:27:46.092Z,0
2016-12-22T16:28:55.804Z,0
2016-12-22T16:30:05.820Z,0
2016-12-22T16:31:16.143Z,0
2016-12-22T16:32:26.157Z,0
2016-12-22T16:33:36.163Z,0
2016-12-22T16:34:46.165Z,0
2016-12-22T16:35:56.168Z,0
2016-12-22T16:37:06.194Z,0
2016-12-22T16:38:16.516Z,0
2016-12-22T16:39:25.905Z,0
2016-12-22T16:40:36.239Z,0
2016-12-22T16:41:46.247Z,0
2016-12-22T16:42:56.257Z,0
2016-12-22T16:44:06.595Z,0
2016-12-22T16:45:16.603Z,0
2016-12-22T16:46:26.628Z,0
2016-12-22T16:47:36.630Z,0
2016-12-22T16:48:46.642Z,0
2016-12-22T16:49:56.338Z,0
2016-12-22T16:51:06.657Z,0
2016-12-22T16:52:16.681Z,0
2016-12-22T16:53:26.714Z,0
2016-12-22T16:54:37.039Z,0
2016-12-22T16:55:47.048Z,0
2016-12-22T16:56:57.396Z,0
2016-12-22T16:58:07.717Z,0
2016-12-22T16:59:18.037Z,0
2016-12-22T17:00:27.752Z,0
2016-12-22T17:01:38.062Z,0
2016-12-22T17:02:47.767Z,0
2016-12-22T17:03:57.769Z,0
2016-12-22T17:05:08.083Z,0
2016-12-22T17:06:18.409Z,0
2016-12-22T17:07:28.434Z,0
2016-12-22T17:08:38.476Z,0
2016-12-22T17:09:48.799Z,0
2016-12-22T17:10:58.815Z,0